Time;durP1;ratioP1;P1;durP2;ratioP2;P2;SDS_P1;SDS_P2;PMS_P1;PMS_P2;Temp;Humidity;BMP_temperature;BMP_pressure;BME280_temperature;BME280_humidity;BME280_pressure;Samples;Min_cycle;Max_cycle;Signal;HPM_P1;HPM_P2
2021/10/21 00:01:05;;;;;;;25.08;11.32;;;;;;;14.21;100.00;96819.41;4985520;28;20077;-65
2021/10/21 00:03:31;;;;;;;25.40;10.73;;;;;;;14.13;100.00;96829.59;4988321;28;21046;-64
2021/10/21 00:05:57;;;;;;;19.08;10.75;;;;;;;14.58;100.00;96846.34;4988262;28;20038;-63
2021/10/21 00:08:23;;;;;;;16.23;9.85;;;;;;;14.55;100.00;96848.31;4988418;28;20018;-65
2021/10/21 00:10:50;;;;;;;18.23;9.57;;;;;;;14.49;100.00;96848.81;4989236;28;20864;-65
2021/10/21 00:13:16;;;;;;;16.10;8.70;;;;;;;14.39;100.00;96860.00;4987832;28;20129;-65
2021/10/21 00:15:41;;;;;;;23.27;12.07;;;;;;;14.26;100.00;96856.59;4989560;28;20141;-66
2021/10/21 00:18:06;;;;;;;28.00;12.27;;;;;;;14.50;100.00;96850.47;4988748;28;20030;-64
2021/10/21 00:20:32;;;;;;;18.23;9.40;;;;;;;14.42;100.00;96830.06;4989327;28;20050;-62
2021/10/21 00:22:57;;;;;;;18.85;9.40;;;;;;;14.64;100.00;96829.28;4988189;28;20061;-63
2021/10/21 00:25:22;;;;;;;22.85;11.38;;;;;;;14.37;100.00;96822.53;4987901;28;20592;-64
2021/10/21 00:27:48;;;;;;;28.92;13.10;;;;;;;14.81;100.00;96834.09;4987405;28;20681;-63
2021/10/21 00:30:13;;;;;;;26.15;11.18;;;;;;;14.72;100.00;96834.81;4986613;28;20400;-65
2021/10/21 00:32:39;;;;;;;18.50;10.15;;;;;;;14.39;100.00;96825.88;4988221;28;20030;-62
2021/10/21 00:35:05;;;;;;;15.93;9.55;;;;;;;14.76;100.00;96825.75;4988079;28;20022;-64
2021/10/21 00:37:30;;;;;;;21.52;10.90;;;;;;;14.77;100.00;96834.44;4987447;28;20444;-64
2021/10/21 00:39:56;;;;;;;22.38;11.38;;;;;;;14.64;100.00;96834.53;4986545;28;20463;-63
2021/10/21 00:42:21;;;;;;;15.57;8.82;;;;;;;14.79;100.00;96814.16;4984288;28;20126;-63
2021/10/21 00:44:46;;;;;;;24.25;11.48;;;;;;;14.77;100.00;96795.91;4990351;28;20023;-63
2021/10/21 00:47:12;;;;;;;22.58;12.05;;;;;;;14.54;100.00;96767.94;4988386;28;20574;-64
2021/10/21 00:49:38;;;;;;;17.02;9.23;;;;;;;14.75;100.00;96782.06;4988609;28;20026;-63
2021/10/21 00:52:04;;;;;;;18.38;9.23;;;;;;;14.81;100.00;96771.09;4987018;28;20389;-63
2021/10/21 00:54:30;;;;;;;22.42;10.70;;;;;;;15.01;100.00;96753.75;4985467;28;20018;-65
2021/10/21 00:56:56;;;;;;;14.95;9.45;;;;;;;14.87;100.00;96747.94;4987611;28;20117;-62
2021/10/21 00:59:22;;;;;;;14.40;7.93;;;;;;;14.81;100.00;96757.97;4986912;28;20026;-64
2021/10/21 01:01:47;;;;;;;13.90;7.78;;;;;;;14.72;100.00;96777.06;4986622;28;20093;-63
2021/10/21 01:04:12;;;;;;;14.18;8.20;;;;;;;14.59;100.00;96781.56;4988632;28;20040;-63
2021/10/21 01:06:41;;;;;;;15.85;8.30;;;;;;;14.81;100.00;96796.50;4986729;28;20101;-63
2021/10/21 01:09:06;;;;;;;12.93;7.07;;;;;;;14.72;100.00;96797.22;4989747;28;20023;-63
2021/10/21 01:11:32;;;;;;;13.73;7.88;;;;;;;14.57;100.00;96797.44;4988522;28;20231;-63
2021/10/21 01:13:57;;;;;;;16.13;7.88;;;;;;;14.74;100.00;96777.78;4991167;28;20104;-63
2021/10/21 01:16:23;;;;;;;12.15;6.80;;;;;;;14.79;100.00;96761.66;4990041;28;20053;-64
2021/10/21 01:18:48;;;;;;;13.63;7.10;;;;;;;14.68;100.00;96757.25;4989762;28;20640;-64
2021/10/21 01:21:14;;;;;;;12.60;6.50;;;;;;;14.80;100.00;96744.97;4992076;28;20034;-65
2021/10/21 01:23:41;;;;;;;10.68;5.55;;;;;;;15.17;100.00;96737.63;4990054;28;20424;-64
2021/10/21 01:26:08;;;;;;;22.63;7.45;;;;;;;15.02;100.00;96728.38;4991406;28;20041;-62
2021/10/21 01:28:33;;;;;;;12.02;5.97;;;;;;;15.03;100.00;96730.03;4989027;28;20109;-65
2021/10/21 01:30:58;;;;;;;14.43;6.07;;;;;;;14.88;100.00;96739.94;4988487;28;20302;-63
2021/10/21 01:33:24;;;;;;;15.70;6.15;;;;;;;14.60;100.00;96730.78;4987522;28;20108;-62
2021/10/21 01:35:49;;;;;;;16.23;6.18;;;;;;;14.68;100.00;96727.56;4990722;28;20068;-63
2021/10/21 01:38:14;;;;;;;22.05;8.98;;;;;;;14.88;100.00;96697.13;4993532;28;20045;-64
2021/10/21 01:40:40;;;;;;;10.88;6.25;;;;;;;14.74;100.00;96695.56;4990331;28;20488;-62
2021/10/21 01:43:05;;;;;;;10.27;6.13;;;;;;;14.44;100.00;96676.81;4990074;28;20441;-64
2021/10/21 01:45:32;;;;;;;10.57;6.05;;;;;;;14.49;100.00;96686.97;4990856;28;20614;-63
2021/10/21 01:48:00;;;;;;;17.38;6.35;;;;;;;14.67;100.00;96668.13;4991642;28;20649;-63
2021/10/21 01:50:28;;;;;;;15.73;6.93;;;;;;;14.53;100.00;96671.81;4989250;28;20531;-64
2021/10/21 01:52:54;;;;;;;12.57;6.40;;;;;;;14.42;100.00;96657.75;4990496;28;20479;-65
2021/10/21 01:55:20;;;;;;;8.18;4.95;;;;;;;14.25;100.00;96658.25;4989311;28;20030;-65
2021/10/21 01:57:46;;;;;;;15.02;5.30;;;;;;;14.39;100.00;96654.53;4990723;28;20408;-64
2021/10/21 02:00:17;;;;;;;11.52;6.25;;;;;;;14.31;100.00;96652.50;4990933;28;20342;-63
2021/10/21 02:02:44;;;;;;;12.80;6.30;;;;;;;14.43;100.00;96656.81;4991107;28;20543;-65
2021/10/21 02:05:11;;;;;;;15.02;6.82;;;;;;;14.31;100.00;96662.16;4990745;28;20022;-63
2021/10/21 02:07:37;;;;;;;10.30;5.90;;;;;;;14.13;100.00;96639.03;4989607;28;20706;-64
2021/10/21 02:10:05;;;;;;;8.10;5.35;;;;;;;14.28;100.00;96605.56;4989805;28;20023;-62
2021/10/21 02:12:31;;;;;;;9.63;5.18;;;;;;;14.05;100.00;96616.03;4988696;28;20082;-63
2021/10/21 02:14:56;;;;;;;9.75;5.40;;;;;;;14.42;100.00;96633.31;4992556;28;20109;-63
2021/10/21 02:17:22;;;;;;;8.07;5.00;;;;;;;14.05;100.00;96657.97;4991345;28;20045;-64
2021/10/21 02:19:49;;;;;;;13.40;5.13;;;;;;;14.16;100.00;96635.34;4991836;28;20105;-63
2021/10/21 02:22:15;;;;;;;12.70;5.70;;;;;;;13.74;100.00;96566.94;4991143;28;20109;-62
2021/10/21 02:24:40;;;;;;;13.70;5.80;;;;;;;13.61;100.00;96559.16;4991398;28;20042;-65
2021/10/21 02:27:05;;;;;;;10.80;4.90;;;;;;;13.63;100.00;96546.78;4991648;28;20452;-62
2021/10/21 02:29:31;;;;;;;11.80;4.15;;;;;;;13.66;100.00;96547.38;4989918;28;20022;-66
2021/10/21 02:31:56;;;;;;;8.05;3.90;;;;;;;13.67;100.00;96533.34;4992538;28;20125;-63
2021/10/21 02:34:22;;;;;;;7.38;4.30;;;;;;;13.65;100.00;96529.97;4989770;28;20032;-62
2021/10/21 02:36:47;;;;;;;9.85;4.95;;;;;;;13.74;100.00;96532.88;4989765;28;20046;-64
2021/10/21 02:39:12;;;;;;;8.43;4.45;;;;;;;13.88;100.00;96524.78;4989342;28;20033;-64
2021/10/21 02:41:37;;;;;;;9.50;4.63;;;;;;;13.76;100.00;96531.78;4988620;28;20041;-63
2021/10/21 02:44:03;;;;;;;8.80;4.68;;;;;;;13.96;100.00;96529.41;4989798;28;20888;-62
2021/10/21 02:46:29;;;;;;;5.43;3.60;;;;;;;13.58;100.00;96535.81;4990362;28;20509;-62
2021/10/21 02:48:54;;;;;;;8.32;4.40;;;;;;;13.80;100.00;96524.50;4992028;28;20034;-63
2021/10/21 02:51:19;;;;;;;8.32;4.47;;;;;;;13.84;100.00;96515.47;4989500;28;20042;-62
2021/10/21 02:53:45;;;;;;;9.88;4.43;;;;;;;13.88;100.00;96509.88;4992420;28;20029;-62
2021/10/21 02:56:10;;;;;;;8.25;3.75;;;;;;;14.02;100.00;96518.44;4991882;28;20069;-64
2021/10/21 02:58:35;;;;;;;7.50;4.38;;;;;;;14.08;100.00;96531.91;4990802;28;20088;-64
2021/10/21 03:01:01;;;;;;;8.73;4.70;;;;;;;14.49;100.00;96518.25;4992865;28;20117;-64
2021/10/21 03:03:26;;;;;;;15.57;4.82;;;;;;;14.10;100.00;96517.81;4992143;28;20140;-62
2021/10/21 03:05:51;;;;;;;7.07;4.25;;;;;;;14.13;100.00;96496.63;4988895;28;20034;-63
2021/10/21 03:08:17;;;;;;;7.20;4.20;;;;;;;13.97;100.00;96476.00;4989887;28;20026;-62
2021/10/21 03:10:42;;;;;;;9.52;4.55;;;;;;;13.95;100.00;96468.31;4990542;28;20038;-63
2021/10/21 03:13:07;;;;;;;7.82;4.40;;;;;;;14.24;100.00;96457.25;4992652;28;20053;-63
2021/10/21 03:15:33;;;;;;;11.73;4.43;;;;;;;13.97;100.00;96465.53;4988955;28;20146;-64
2021/10/21 03:17:58;;;;;;;8.40;4.15;;;;;;;14.06;100.00;96485.78;4988656;28;20121;-65
2021/10/21 03:20:24;;;;;;;7.90;4.10;;;;;;;13.78;100.00;96489.75;4989423;28;20121;-63
2021/10/21 03:22:49;;;;;;;9.57;4.57;;;;;;;13.72;100.00;96474.50;4989151;28;20034;-62
2021/10/21 03:25:15;;;;;;;9.70;4.78;;;;;;;13.78;100.00;96450.44;4990222;28;20021;-62
2021/10/21 03:27:41;;;;;;;10.68;4.50;;;;;;;13.54;100.00;96443.53;4989986;28;20030;-65
2021/10/21 03:30:08;;;;;;;6.80;4.30;;;;;;;13.72;100.00;96412.44;4986228;28;20026;-62
2021/10/21 03:32:34;;;;;;;7.45;4.35;;;;;;;13.64;100.00;96397.34;4988293;28;20026;-64
2021/10/21 03:34:59;;;;;;;11.57;4.70;;;;;;;13.67;100.00;96394.50;4989615;28;20034;-64
2021/10/21 03:37:25;;;;;;;9.07;4.22;;;;;;;13.65;100.00;96369.34;4988164;28;20038;-62
2021/10/21 03:39:50;;;;;;;8.80;4.45;;;;;;;13.58;100.00;96374.25;4989802;28;20034;-64
2021/10/21 03:42:20;;;;;;;9.73;3.78;;;;;;;13.53;100.00;96365.94;4989483;28;20030;-62
2021/10/21 03:44:46;;;;;;;8.40;4.22;;;;;;;13.80;100.00;96375.16;4988634;28;20025;-62
2021/10/21 03:47:11;;;;;;;10.88;4.80;;;;;;;13.62;100.00;96373.06;4988137;28;20069;-64
2021/10/21 03:49:38;;;;;;;11.45;5.05;;;;;;;13.78;100.00;96372.66;4987594;28;20018;-62
2021/10/21 03:52:04;;;;;;;8.10;4.75;;;;;;;13.78;100.00;96377.06;4989956;28;20042;-62
2021/10/21 03:54:30;;;;;;;10.50;5.60;;;;;;;13.65;100.00;96367.56;4989366;28;20079;-62
2021/10/21 03:56:56;;;;;;;9.38;4.72;;;;;;;13.72;100.00;96364.47;4988680;28;20595;-62
2021/10/21 03:59:21;;;;;;;9.70;5.30;;;;;;;13.72;100.00;96380.19;4991389;28;20523;-62
2021/10/21 04:01:47;;;;;;;7.07;4.28;;;;;;;14.15;100.00;96405.56;4985660;28;20038;-62
2021/10/21 04:04:12;;;;;;;8.93;4.80;;;;;;;13.91;100.00;96398.72;4989345;28;20118;-62
2021/10/21 04:06:38;;;;;;;9.05;5.45;;;;;;;14.00;100.00;96400.59;4988524;28;20470;-61
2021/10/21 04:09:03;;;;;;;8.98;5.50;;;;;;;14.05;100.00;96372.22;4988028;28;20029;-63
2021/10/21 04:11:29;;;;;;;7.75;4.57;;;;;;;14.40;100.00;96381.63;4987900;28;20042;-64
2021/10/21 04:13:54;;;;;;;8.75;5.00;;;;;;;14.44;100.00;96385.66;4988419;28;20036;-61
2021/10/21 04:16:19;;;;;;;10.52;5.95;;;;;;;14.59;100.00;96385.38;4987718;28;20137;-63
2021/10/21 04:18:45;;;;;;;8.63;4.85;;;;;;;14.56;100.00;96364.63;4991526;28;20671;-64
2021/10/21 04:21:12;;;;;;;8.88;5.55;;;;;;;14.47;100.00;96350.50;4987817;28;20046;-61
2021/10/21 04:23:37;;;;;;;10.98;5.68;;;;;;;14.54;100.00;96358.66;4988100;28;20022;-63
2021/10/21 04:26:03;;;;;;;7.43;4.95;;;;;;;14.56;100.00;96356.78;4987204;28;20046;-62
2021/10/21 04:28:28;;;;;;;8.15;5.47;;;;;;;14.68;100.00;96376.75;4987945;28;20030;-62
2021/10/21 04:30:53;;;;;;;9.75;6.30;;;;;;;14.55;100.00;96339.34;4988735;28;20395;-63
2021/10/21 04:33:19;;;;;;;11.32;6.05;;;;;;;14.19;100.00;96350.16;4988154;28;20061;-64
2021/10/21 04:35:44;;;;;;;12.23;6.70;;;;;;;14.44;100.00;96354.19;4988226;28;20065;-62
2021/10/21 04:38:09;;;;;;;9.32;4.75;;;;;;;14.40;100.00;96368.50;4988337;28;20169;-64
2021/10/21 04:40:35;;;;;;;13.57;6.75;;;;;;;14.32;100.00;96368.31;4985952;28;20061;-62
2021/10/21 04:43:00;;;;;;;8.60;5.53;;;;;;;14.56;100.00;96375.13;4988319;28;20113;-62
2021/10/21 04:45:25;;;;;;;10.48;5.50;;;;;;;14.31;100.00;96379.75;4988098;28;20068;-62
2021/10/21 04:47:56;;;;;;;10.25;6.20;;;;;;;14.45;100.00;96379.47;4990342;28;20029;-65
2021/10/21 04:50:21;;;;;;;14.07;6.20;;;;;;;14.72;100.00;96374.69;4992026;28;20510;-62
2021/10/21 04:52:47;;;;;;;9.55;5.75;;;;;;;14.76;100.00;96371.69;4990263;28;20034;-61
2021/10/21 04:55:12;;;;;;;12.18;6.93;;;;;;;14.72;100.00;96338.81;4990116;28;20699;-63
2021/10/21 04:57:37;;;;;;;9.10;6.00;;;;;;;14.80;100.00;96370.47;4990612;28;20056;-64
2021/10/21 05:00:05;;;;;;;8.93;6.00;;;;;;;14.78;100.00;96376.84;4993464;28;20022;-63
2021/10/21 05:02:30;;;;;;;8.85;5.00;;;;;;;14.83;100.00;96375.47;4989539;28;20034;-63
2021/10/21 05:04:55;;;;;;;8.18;4.85;;;;;;;15.03;100.00;96386.94;4992446;28;20030;-62
2021/10/21 05:07:21;;;;;;;10.43;6.18;;;;;;;15.07;100.00;96382.25;4992806;28;20074;-61
2021/10/21 05:09:46;;;;;;;11.00;6.10;;;;;;;14.86;100.00;96363.88;4991949;28;20033;-63
2021/10/21 05:12:11;;;;;;;9.68;4.93;;;;;;;15.10;100.00;96366.22;4991898;28;20046;-61
2021/10/21 05:14:37;;;;;;;8.45;4.60;;;;;;;15.11;100.00;96373.13;4993189;28;20033;-61
2021/10/21 05:17:02;;;;;;;8.18;5.38;;;;;;;15.27;100.00;96384.94;4990231;28;20044;-61
2021/10/21 05:19:27;;;;;;;6.80;4.10;;;;;;;15.22;100.00;96380.09;4991292;28;20760;-64
2021/10/21 05:21:53;;;;;;;7.55;5.10;;;;;;;15.18;100.00;96384.78;4993168;28;20615;-63
2021/10/21 05:24:19;;;;;;;8.95;5.30;;;;;;;15.00;100.00;96402.09;4993036;28;20778;-63
2021/10/21 05:26:44;;;;;;;9.10;5.60;;;;;;;15.27;100.00;96388.41;4991920;28;20045;-64
2021/10/21 05:29:09;;;;;;;10.68;4.82;;;;;;;15.08;100.00;96397.03;4992883;28;20029;-62
2021/10/21 05:31:35;;;;;;;9.82;5.28;;;;;;;15.25;100.00;96386.88;4991781;28;20128;-63
2021/10/21 05:34:00;;;;;;;10.52;5.97;;;;;;;15.27;100.00;96396.28;4992743;28;20554;-62
2021/10/21 05:36:25;;;;;;;10.55;6.10;;;;;;;15.07;100.00;96387.50;4993878;28;20060;-63
2021/10/21 05:38:51;;;;;;;12.75;5.30;;;;;;;15.15;100.00;96382.41;4994511;28;20030;-63
2021/10/21 05:41:17;;;;;;;16.70;6.28;;;;;;;15.20;100.00;96382.00;4990998;28;20042;-65
2021/10/21 05:43:42;;;;;;;9.60;5.78;;;;;;;15.15;100.00;96395.53;4995080;28;20022;-63
2021/10/21 05:46:08;;;;;;;13.60;5.35;;;;;;;15.15;100.00;96411.28;4991695;28;20823;-62
2021/10/21 05:48:33;;;;;;;13.27;4.88;;;;;;;15.15;100.00;96411.28;4993633;28;20505;-60
2021/10/21 05:51:00;;;;;;;10.80;4.80;;;;;;;15.24;100.00;96443.84;4993282;28;20038;-62
2021/10/21 05:53:26;;;;;;;9.75;4.35;;;;;;;15.04;100.00;96435.00;4992186;28;20042;-62
2021/10/21 05:55:51;;;;;;;11.05;4.00;;;;;;;15.13;100.00;96452.63;4992494;28;20046;-63
2021/10/21 05:58:16;;;;;;;9.15;3.67;;;;;;;15.32;100.00;96443.19;4992227;28;20654;-61
2021/10/21 06:00:42;;;;;;;3.88;2.30;;;;;;;14.70;89.87;96458.78;4992215;28;20061;-62
2021/10/21 06:03:07;;;;;;;10.82;2.95;;;;;;;15.08;89.65;96457.41;4991537;28;20033;-63
2021/10/21 06:05:33;;;;;;;7.57;2.45;;;;;;;14.97;86.24;96441.72;4993709;28;20049;-62
2021/10/21 06:08:00;;;;;;;4.78;2.00;;;;;;;15.04;84.46;96474.38;4994404;28;20065;-65
2021/10/21 06:10:25;;;;;;;2.80;1.15;;;;;;;14.96;73.83;96482.06;4993843;28;20483;-61
2021/10/21 06:12:51;;;;;;;6.45;1.50;;;;;;;15.01;78.41;96472.84;4993243;28;20533;-63
2021/10/21 06:15:18;;;;;;;10.15;2.67;;;;;;;15.27;81.30;96458.50;4992756;28;20065;-62
2021/10/21 06:17:44;;;;;;;11.93;2.90;;;;;;;15.06;78.96;96485.59;4992878;28;20051;-65
2021/10/21 06:20:13;;;;;;;8.88;2.58;;;;;;;15.46;75.92;96505.91;4993375;28;20022;-65
2021/10/21 06:22:39;;;;;;;3.80;1.05;;;;;;;14.96;71.79;96521.44;4992135;28;20030;-64
2021/10/21 06:25:09;;;;;;;7.90;1.95;;;;;;;15.12;75.93;96506.06;4990920;28;20092;-64
2021/10/21 06:27:35;;;;;;;9.25;1.33;;;;;;;14.94;71.28;96523.34;4992838;28;20025;-65
2021/10/21 06:30:00;;;;;;;10.57;2.60;;;;;;;15.79;71.27;96531.13;4992456;28;20679;-65
2021/10/21 06:32:26;;;;;;;7.22;1.63;;;;;;;15.28;70.60;96552.09;4990137;28;20034;-64
2021/10/21 06:34:51;;;;;;;10.02;0.85;;;;;;;14.74;68.73;96565.19;4993444;28;20034;-63
2021/10/21 06:37:17;;;;;;;9.30;1.80;;;;;;;15.33;72.83;96566.50;4994314;28;20040;-62
2021/10/21 06:39:42;;;;;;;8.93;2.08;;;;;;;15.49;72.40;96566.03;4991967;28;20022;-64
2021/10/21 06:42:07;;;;;;;4.35;1.05;;;;;;;15.28;67.34;96578.38;4991451;28;20392;-66
2021/10/21 06:44:33;;;;;;;6.20;1.85;;;;;;;15.69;74.78;96576.69;4995743;28;20110;-64
2021/10/21 06:46:58;;;;;;;3.47;0.95;;;;;;;15.47;65.76;96581.09;4993176;28;20037;-63
2021/10/21 06:49:24;;;;;;;4.00;1.17;;;;;;;15.41;64.24;96571.94;4992652;28;20526;-63
2021/10/21 06:51:49;;;;;;;5.65;1.38;;;;;;;15.49;67.71;96573.09;4991104;28;20072;-65
2021/10/21 06:54:14;;;;;;;5.65;1.77;;;;;;;15.40;64.59;96577.31;4990814;28;20112;-62
2021/10/21 06:56:40;;;;;;;6.78;1.83;;;;;;;15.45;65.66;96580.41;4991148;28;20033;-63
2021/10/21 06:59:05;;;;;;;6.00;1.90;;;;;;;15.34;68.71;96583.09;4999344;28;20121;-65
2021/10/21 07:01:30;;;;;;;6.93;1.45;;;;;;;15.08;63.82;96593.13;4991152;28;20065;-64
2021/10/21 07:03:57;;;;;;;9.18;1.83;;;;;;;15.33;67.94;96576.16;4991065;28;20026;-63
2021/10/21 07:06:22;;;;;;;6.55;1.90;;;;;;;15.55;67.04;96612.84;4991683;28;20046;-65
2021/10/21 07:08:48;;;;;;;8.60;1.50;;;;;;;15.33;63.77;96589.28;4991949;28;20396;-63
2021/10/21 07:11:13;;;;;;;5.72;1.45;;;;;;;15.63;74.18;96593.81;4987376;28;20041;-64
2021/10/21 07:13:39;;;;;;;7.07;1.30;;;;;;;15.17;63.88;96598.44;4992221;28;20022;-64
2021/10/21 07:16:07;;;;;;;4.72;1.25;;;;;;;15.16;64.66;96619.59;4992030;28;20049;-64
2021/10/21 07:18:32;;;;;;;8.32;1.85;;;;;;;15.56;63.98;96603.97;4991174;28;20026;-64
2021/10/21 07:20:58;;;;;;;6.13;1.25;;;;;;;15.09;65.37;96613.16;4990244;28;20038;-65
2021/10/21 07:23:23;;;;;;;3.17;1.05;;;;;;;14.97;65.65;96613.19;4992635;28;20037;-66
2021/10/21 07:25:49;;;;;;;3.90;1.08;;;;;;;15.14;65.75;96603.94;4989863;28;20034;-65
2021/10/21 07:28:14;;;;;;;5.30;1.38;;;;;;;15.52;62.82;96623.59;4999209;28;20037;-66
2021/10/21 07:30:39;;;;;;;3.20;1.33;;;;;;;15.91;66.20;96617.78;4990034;28;20030;-65
2021/10/21 07:33:05;;;;;;;9.02;1.58;;;;;;;15.70;65.94;96641.44;4993444;28;20033;-65
2021/10/21 07:35:31;;;;;;;9.50;1.63;;;;;;;17.70;57.37;96624.88;4989645;28;20034;-65
2021/10/21 07:37:59;;;;;;;6.65;1.73;;;;;;;18.07;59.64;96618.84;4990017;28;20029;-63
2021/10/21 07:40:25;;;;;;;8.23;1.73;;;;;;;17.22;59.90;96635.41;4990412;28;20030;-64
2021/10/21 07:42:51;;;;;;;7.75;1.48;;;;;;;17.39;55.40;96641.78;4990426;28;20022;-65
2021/10/21 07:45:16;;;;;;;8.77;1.55;;;;;;;16.05;57.33;96653.47;4992010;28;20029;-65
2021/10/21 07:47:41;;;;;;;4.30;1.60;;;;;;;16.33;61.25;96681.69;4992046;28;20097;-63
2021/10/21 07:50:08;;;;;;;13.25;1.88;;;;;;;16.47;56.03;96667.38;4991209;28;20029;-65
2021/10/21 07:52:38;;;;;;;7.60;1.92;;;;;;;16.11;61.06;96658.19;4993127;28;20022;-63
2021/10/21 07:55:09;;;;;;;7.65;1.52;;;;;;;16.12;62.04;96665.09;4989219;28;20027;-65
2021/10/21 07:57:34;;;;;;;4.85;1.20;;;;;;;16.07;58.03;96683.09;4990934;28;20030;-64
2021/10/21 08:00:00;;;;;;;4.63;1.20;;;;;;;15.75;58.88;96662.94;4990328;28;20380;-63
2021/10/21 08:02:25;;;;;;;3.72;0.98;;;;;;;15.42;60.82;96693.66;4989860;28;20046;-64
2021/10/21 08:04:50;;;;;;;7.45;1.50;;;;;;;15.64;66.29;96700.63;4992251;28;20484;-64
2021/10/21 08:07:16;;;;;;;6.70;1.88;;;;;;;15.61;66.96;96683.28;4992360;28;20410;-64
2021/10/21 08:09:41;;;;;;;4.18;1.33;;;;;;;15.10;58.98;96712.00;4990203;28;20034;-65
2021/10/21 08:12:08;;;;;;;11.90;1.20;;;;;;;14.98;60.53;96712.03;4988259;28;20664;-62
2021/10/21 08:14:33;;;;;;;4.03;1.10;;;;;;;15.32;59.58;96729.50;4992326;28;20096;-63
2021/10/21 08:16:59;;;;;;;5.35;1.55;;;;;;;15.10;60.43;96738.25;4992082;28;20046;-67
2021/10/21 08:19:26;;;;;;;8.55;1.20;;;;;;;14.70;63.18;96757.97;4993448;28;20030;-62
2021/10/21 08:21:52;;;;;;;4.25;1.25;;;;;;;14.84;64.08;96754.28;4989568;28;20093;-63
2021/10/21 08:24:19;;;;;;;12.82;1.23;;;;;;;14.79;64.53;96762.50;4989083;28;20030;-64
2021/10/21 08:26:46;;;;;;;4.75;1.30;;;;;;;14.73;63.48;96757.72;4992606;28;20590;-63
2021/10/21 08:29:12;;;;;;;6.45;1.48;;;;;;;14.88;69.34;96765.38;4990855;28;20041;-64
2021/10/21 08:31:37;;;;;;;3.95;1.27;;;;;;;14.54;63.54;96767.94;4987354;28;20045;-62
2021/10/21 08:34:03;;;;;;;4.55;1.23;;;;;;;14.96;69.41;96782.19;4991315;28;20030;-62
2021/10/21 08:36:28;;;;;;;4.30;1.45;;;;;;;15.02;63.39;96784.34;4990310;28;20038;-62
2021/10/21 08:38:55;;;;;;;8.70;1.10;;;;;;;15.20;64.11;96807.47;4993499;28;20037;-64
2021/10/21 08:41:21;;;;;;;5.13;1.50;;;;;;;15.21;62.44;96817.03;4991245;28;20053;-63
2021/10/21 08:43:47;;;;;;;5.60;1.15;;;;;;;15.21;66.76;96814.41;4993431;28;20018;-64
2021/10/21 08:46:18;;;;;;;5.50;1.73;;;;;;;15.67;64.60;96818.63;4988856;28;20042;-62
2021/10/21 08:48:45;;;;;;;5.70;1.00;;;;;;;15.44;60.76;96833.63;4990137;28;20133;-63
2021/10/21 08:51:10;;;;;;;3.75;1.83;;;;;;;15.26;60.81;96840.31;4987488;28;20062;-66
2021/10/21 08:53:37;;;;;;;5.90;1.17;;;;;;;15.22;61.08;96843.19;4989988;28;20062;-65
2021/10/21 08:56:04;;;;;;;7.78;1.30;;;;;;;15.65;71.32;96848.63;4989156;28;20100;-67
2021/10/21 08:58:29;;;;;;;5.47;1.98;;;;;;;16.03;65.93;96873.63;4991284;28;20057;-65
2021/10/21 09:00:59;;;;;;;4.90;1.33;;;;;;;15.10;63.87;96890.56;4988196;28;20057;-66
2021/10/21 09:03:53;;;;;;;6.15;1.30;;;;;;;15.36;64.51;96902.50;4990237;28;20129;-63
2021/10/21 09:09:05;;;;;;;5.50;1.42;;;;;;;15.38;64.75;96899.75;4984275;28;20034;-62
2021/10/21 09:11:31;;;;;;;3.83;0.82;;;;;;;15.35;59.33;96921.03;4991747;28;20042;-63
2021/10/21 09:14:11;;;;;;;4.80;1.40;;;;;;;15.46;63.23;96901.78;4991545;28;20022;-64
2021/10/21 09:16:39;;;;;;;2.58;1.15;;;;;;;15.19;60.01;96924.84;4998600;28;20046;-64
2021/10/21 09:19:13;;;;;;;4.13;1.50;;;;;;;15.11;57.75;96945.59;4992644;28;20034;-61
2021/10/21 09:21:40;;;;;;;8.50;1.00;;;;;;;15.27;57.46;96929.50;4989548;28;20076;-64
2021/10/21 09:24:29;;;;;;;8.38;1.25;;;;;;;15.42;64.53;96936.19;4990196;28;20049;-61
2021/10/21 09:27:15;;;;;;;3.38;1.08;;;;;;;16.06;72.34;96932.09;4991599;28;20047;-63
2021/10/21 09:29:46;;;;;;;3.65;1.23;;;;;;;15.99;62.18;96958.06;4989134;28;20077;-62
2021/10/21 09:32:14;;;;;;;5.03;1.20;;;;;;;15.39;60.14;96983.72;4991112;28;20034;-62
2021/10/21 09:34:48;;;;;;;6.15;1.13;;;;;;;15.67;59.08;96967.63;4995238;28;20033;-63
2021/10/21 09:37:36;;;;;;;3.75;0.88;;;;;;;15.15;60.26;96977.72;4993705;28;20428;-62
2021/10/21 09:40:07;;;;;;;4.65;1.10;;;;;;;15.55;58.06;96970.25;4990954;28;20492;-63
2021/10/21 09:42:41;;;;;;;5.38;0.90;;;;;;;15.76;66.04;96966.94;4991834;28;20050;-63
2021/10/21 09:45:23;;;;;;;3.13;0.60;;;;;;;15.16;61.97;96953.13;4991426;28;20027;-64
2021/10/21 09:47:50;;;;;;;;;;;;;;;15.62;62.60;96988.97;4993399;28;20674;-62
2021/10/21 09:50:38;;;;;;;3.58;1.10;;;;;;;15.71;58.15;97013.72;4992381;28;19920;-64
2021/10/21 09:53:29;;;;;;;2.17;1.20;;;;;;;15.90;65.61;97015.78;4993145;28;20030;-62
2021/10/21 09:56:04;;;;;;;2.58;0.88;;;;;;;15.84;66.66;97037.31;4990782;28;20050;-62
2021/10/21 09:58:30;;;;;;;1.83;0.70;;;;;;;15.39;58.82;97043.31;4994815;28;20480;-62
2021/10/21 10:01:17;;;;;;;4.95;1.10;;;;;;;15.22;58.78;97048.06;4991853;28;20053;-63
2021/10/21 10:03:44;;;;;;;6.70;0.80;;;;;;;15.37;61.38;97042.59;4992248;28;20034;-64
2021/10/21 10:06:18;;;;;;;3.35;0.63;;;;;;;15.24;57.39;97063.72;4991095;28;20111;-63
2021/10/21 10:08:46;;;;;;;2.33;1.05;;;;;;;15.17;59.31;97065.94;4993606;28;20029;-62
2021/10/21 10:11:15;;;;;;;3.58;0.80;;;;;;;15.30;59.43;97054.53;4992439;28;20539;-63
2021/10/21 10:13:47;;;;;;;1.65;0.60;;;;;;;15.01;57.96;97047.03;4993498;28;20053;-62
2021/10/21 10:16:13;;;;;;;3.13;0.90;;;;;;;15.47;60.92;97067.22;4992677;28;20077;-64
2021/10/21 10:18:44;;;;;;;2.45;0.80;;;;;;;15.40;62.47;97084.41;4991863;28;20038;-64
2021/10/21 10:21:33;;;;;;;2.80;1.10;;;;;;;15.41;60.62;97078.19;4991948;28;20034;-64
2021/10/21 10:24:08;;;;;;;2.58;0.98;;;;;;;15.59;59.25;97082.06;4992900;28;20033;-64
2021/10/21 10:26:46;;;;;;;2.28;0.90;;;;;;;15.15;61.49;97075.72;4992337;28;20057;-65
2021/10/21 10:29:31;;;;;;;1.75;0.60;;;;;;;15.54;57.11;97089.44;4991729;28;20041;-64
2021/10/21 10:32:00;;;;;;;3.17;0.90;;;;;;;15.09;59.04;97089.34;4992884;28;20066;-64
2021/10/21 10:34:34;;;;;;;3.20;0.95;;;;;;;15.49;63.00;97096.84;4992448;28;20100;-65
2021/10/21 10:37:12;;;;;;;5.90;0.93;;;;;;;14.84;59.73;97106.88;4992103;28;20042;-64
2021/10/21 10:39:50;;;;;;;3.10;1.10;;;;;;;15.09;65.33;97120.84;4991841;28;20037;-64
2021/10/21 10:42:37;;;;;;;1.75;0.80;;;;;;;15.21;62.22;97114.66;4994293;28;20137;-63
2021/10/21 10:45:10;;;;;;;3.03;0.95;;;;;;;14.57;62.07;97141.16;4992195;28;20030;-63
2021/10/21 10:47:43;;;;;;;2.65;1.10;;;;;;;14.87;61.80;97139.09;4993134;28;20026;-64
2021/10/21 10:50:29;;;;;;;5.40;0.80;;;;;;;14.51;63.16;97146.84;4991184;28;20058;-64
2021/10/21 10:52:59;;;;;;;2.30;1.00;;;;;;;14.84;61.27;97153.28;4992193;28;20088;-64
2021/10/21 10:55:40;;;;;;;1.60;0.80;;;;;;;14.99;65.88;97164.47;4992620;28;20124;-65
2021/10/21 10:58:26;;;;;;;3.05;1.02;;;;;;;15.02;62.63;97193.16;4992557;28;20065;-64
2021/10/21 11:00:56;;;;;;;3.25;0.70;;;;;;;14.77;63.11;97183.53;4990729;28;20432;-64
2021/10/21 11:03:38;;;;;;;3.55;0.80;;;;;;;14.86;61.09;97196.03;4990681;28;20222;-61
2021/10/21 11:06:24;;;;;;;;;;;;;;;15.83;68.30;97193.41;4991628;28;20030;-64
2021/10/21 11:09:07;;;;;;;1.77;0.85;;;;;;;15.58;61.62;97201.28;4990667;28;19991;-63
2021/10/21 11:11:45;;;;;;;6.32;0.68;;;;;;;15.12;59.53;97212.53;4991026;28;20564;-64
2021/10/21 11:14:14;;;;;;;1.60;0.70;;;;;;;15.13;60.25;97206.34;4990500;28;20041;-64
2021/10/21 11:16:45;;;;;;;1.95;0.80;;;;;;;15.12;58.13;97204.66;4991523;28;20038;-63
2021/10/21 11:19:12;;;;;;;5.60;0.75;;;;;;;15.25;59.54;97219.53;4991676;28;20074;-61
2021/10/21 11:21:54;;;;;;;2.72;1.10;;;;;;;15.61;59.57;97200.22;4991893;28;20034;-64
2021/10/21 11:24:45;;;;;;;6.75;0.90;;;;;;;15.27;59.36;97217.63;4990392;28;20066;-64
2021/10/21 11:27:12;;;;;;;1.95;0.80;;;;;;;14.67;59.43;97225.38;4994604;28;20062;-64
2021/10/21 11:29:38;;;;;;;2.20;1.13;;;;;;;15.35;65.41;97205.63;4991305;28;20075;-63
2021/10/21 11:32:08;;;;;;;3.55;1.08;;;;;;;15.48;60.00;97218.69;4993075;28;20045;-62